Helsby, United Kingdom
Current Conditions -  °F | °C
As of 5:50 AM on Wednesday 22 Oct 2014 (Local Time) from EGGP Reporting Station
Scattered Clouds Scattered Clouds  
Wind Chill: 52°   Ceiling: Unl
Heat Index: 52°   Visibility: 6mi
Dew Point: 45°   Wind: 18mph
Humidity: 76%   Direction: 280°W
Pressure: 30.18"   Gusts: NA
Location:  53.27°N, 2.77°W
Report Text: EGGP 220450Z 28016KT 9999 FEW030 SCT035 11/07 Q1022
Loading
Personal Weather Stations






























Interactive Weather Map
Tropical Storm Tracking
New forecast layout! Learn more

10-Day Weather Forecast

Advertisements
Track Severe Weather on mobile